KMHS/MHS METAR and TAF weather

Enter ICAO airport designator
Station Type Date Time Source
KMHS METAR 2024/06/16 05:56 UTC NOAA

KMHS 160556Z AUTO VRB03KT 10SM CLR 11/M02 A3008 RMK AO2 SLP191 T01111022 10189 20111 51009


Station Type Date Time Source
KMHS Decoded METAR 2024/06/16 05:56 UTC NOAA

MOUNT SHASTA, CA, United States (KMHS) 41-19N 122-19W 1078M
Jun 16, 2024 - 01:56 AM EDT / 2024.06.16 0556 UTC
Wind: Variable at 3 MPH (3 KT):0
Visibility: 10 mile(s):0
Sky conditions: clear
Temperature: 52.0 F (11.1 C)
Dew Point: 28.0 F (-2.2 C)
Relative Humidity: 39%
Pressure (altimeter): 30.08 in. Hg (1018 hPa)
Pressure tendency: 0.03 inches (0.9 hPa) higher than three hours ago
ob: KMHS 160556Z AUTO VRB03KT 10SM CLR 11/M02 A3008 RMK AO2 SLP191 T01111022 10189 20111 51009
cycle: 6

Station Type Date Time Source
KMHS TAF UTC NOAA

Error!

Example: see airport list